createdAt,value
2018-08-03T00:03:33.973Z,27.20
2018-08-03T00:10:55.692Z,27.20
2018-08-03T00:13:22.894Z,27.20
2018-08-03T00:18:17.301Z,27.20
2018-08-03T00:23:12.055Z,27.10
2018-08-03T00:25:39.258Z,27.10
2018-08-03T00:28:06.458Z,27.10
2018-08-03T00:30:33.645Z,27.10
2018-08-03T00:33:00.825Z,27.10
2018-08-03T00:35:28.010Z,27.10
2018-08-03T00:37:55.206Z,27.10
2018-08-03T00:40:22.495Z,27.10
2018-08-03T00:42:49.652Z,27.10
2018-08-03T00:45:17.129Z,27.10
2018-08-03T00:47:44.302Z,27.10
2018-08-03T00:50:11.521Z,27.10
2018-08-03T00:52:38.685Z,27.10
2018-08-03T00:55:05.897Z,27.10
2018-08-03T00:57:33.111Z,27.10
2018-08-03T01:00:02.609Z,27.10
2018-08-03T01:02:29.813Z,27.10
2018-08-03T01:04:57.005Z,27.10
2018-08-03T01:07:24.510Z,27.10
2018-08-03T01:14:46.788Z,27.10
2018-08-03T01:19:41.169Z,27.00
2018-08-03T01:22:08.357Z,27.00
2018-08-03T01:27:02.751Z,27.00
2018-08-03T01:29:30.208Z,27.00
2018-08-03T01:34:24.600Z,27.00
2018-08-03T01:36:51.805Z,27.00
2018-08-03T01:41:46.201Z,27.00
2018-08-03T01:46:40.677Z,27.00
2018-08-03T01:49:07.877Z,27.00
2018-08-03T01:54:02.646Z,27.00
2018-08-03T01:56:29.829Z,26.90
2018-08-03T01:58:57.203Z,26.90
2018-08-03T02:03:51.679Z,26.90
2018-08-03T02:06:18.869Z,26.90
2018-08-03T02:08:46.053Z,26.90
2018-08-03T02:16:08.109Z,26.90
2018-08-03T02:18:35.270Z,26.90
2018-08-03T02:21:02.449Z,26.80
2018-08-03T02:25:57.187Z,26.80
2018-08-03T02:28:24.373Z,26.90
2018-08-03T02:30:51.550Z,26.90
2018-08-03T02:33:18.745Z,26.80
2018-08-03T02:38:13.159Z,26.80
2018-08-03T02:40:40.337Z,26.80
2018-08-03T02:43:07.495Z,26.80
2018-08-03T02:45:34.994Z,26.80
2018-08-03T02:48:02.177Z,26.80
2018-08-03T02:52:56.871Z,26.70
2018-08-03T02:55:24.032Z,26.70
2018-08-03T02:57:51.222Z,26.70
2018-08-03T03:00:20.496Z,26.70
2018-08-03T03:02:47.673Z,26.70
2018-08-03T03:07:42.045Z,26.70
2018-08-03T03:10:09.215Z,26.70
2018-08-03T03:12:36.397Z,26.70
2018-08-03T03:17:31.266Z,26.60
2018-08-03T03:19:58.438Z,26.60
2018-08-03T03:22:25.649Z,26.60
2018-08-03T03:24:52.909Z,26.60
2018-08-03T03:27:20.054Z,26.60
2018-08-03T03:29:47.498Z,26.60
2018-08-03T03:34:41.888Z,26.60
2018-08-03T03:37:15.090Z,26.60
2018-08-03T03:39:42.245Z,26.60
2018-08-03T03:42:09.466Z,26.60
2018-08-03T03:44:36.647Z,26.70
2018-08-03T03:47:03.812Z,26.70
2018-08-03T03:49:30.997Z,26.70
2018-08-03T03:51:58.529Z,26.70
2018-08-03T03:54:25.714Z,26.70
2018-08-03T03:59:20.437Z,26.70
2018-08-03T04:04:14.810Z,26.60
2018-08-03T04:06:42.280Z,26.60
2018-08-03T04:09:11.253Z,26.60
2018-08-03T04:11:38.513Z,26.50
2018-08-03T04:14:05.721Z,26.50
2018-08-03T04:16:33.127Z,26.60
2018-08-03T04:19:00.281Z,26.60
2018-08-03T04:21:27.738Z,26.50
2018-08-03T04:23:54.899Z,26.60
2018-08-03T04:26:22.086Z,26.60
2018-08-03T04:28:51.289Z,26.60
2018-08-03T04:31:18.484Z,26.60
2018-08-03T04:33:45.676Z,26.60
2018-08-03T04:36:13.569Z,26.60
2018-08-03T04:38:40.737Z,26.60
2018-08-03T04:41:07.905Z,26.60
2018-08-03T04:43:35.334Z,26.50
2018-08-03T04:46:02.512Z,26.60
2018-08-03T04:48:29.725Z,26.50
2018-08-03T04:53:26.137Z,26.50
2018-08-03T04:55:53.323Z,26.50
2018-08-03T04:58:20.493Z,26.50
2018-08-03T05:00:47.650Z,26.50
2018-08-03T05:03:15.102Z,26.50
2018-08-03T05:05:42.267Z,26.50
2018-08-03T05:08:09.434Z,26.50
2018-08-03T05:10:36.921Z,26.60
2018-08-03T05:13:04.081Z,26.50
2018-08-03T05:15:31.291Z,26.50
2018-08-03T05:17:58.468Z,26.60
2018-08-03T05:20:25.626Z,26.60
2018-08-03T05:22:52.789Z,26.70
2018-08-03T05:25:20.272Z,26.80
2018-08-03T05:27:47.435Z,26.90
2018-08-03T05:30:14.600Z,27.00
2018-08-03T05:35:09.290Z,27.30
2018-08-03T05:37:36.475Z,27.40
2018-08-03T05:42:31.632Z,27.70
2018-08-03T05:47:26.057Z,28.10
2018-08-03T05:49:53.272Z,28.30
2018-08-03T05:54:47.675Z,28.50
2018-08-03T05:57:14.849Z,28.70
2018-08-03T06:02:09.213Z,28.90
2018-08-03T06:04:36.386Z,29.10
2018-08-03T06:07:03.549Z,29.10
2018-08-03T06:09:30.720Z,29.10
2018-08-03T06:14:25.097Z,29.00
2018-08-03T06:16:52.247Z,28.80
2018-08-03T06:19:19.733Z,28.70
2018-08-03T06:21:46.932Z,28.70
2018-08-03T06:24:14.102Z,28.60
2018-08-03T06:26:41.257Z,28.50
2018-08-03T06:29:08.417Z,28.50
2018-08-03T06:31:35.610Z,28.40
2018-08-03T06:34:02.835Z,28.40
2018-08-03T06:36:30.005Z,28.30
2018-08-03T06:38:57.189Z,28.20
2018-08-03T06:41:24.745Z,28.10
2018-08-03T06:43:52.024Z,28.10
2018-08-03T06:48:46.721Z,28.10
2018-08-03T06:51:13.936Z,28.10
2018-08-03T06:53:41.195Z,28.10
2018-08-03T06:58:39.892Z,28.10
2018-08-03T07:03:34.570Z,28.10
2018-08-03T07:06:01.780Z,28.10
2018-08-03T07:08:29.002Z,28.10
2018-08-03T07:10:56.157Z,28.20
2018-08-03T07:15:50.553Z,28.40
2018-08-03T07:18:18.017Z,28.60
2018-08-03T07:23:12.437Z,29.00
2018-08-03T07:25:39.623Z,29.20
2018-08-03T07:28:06.782Z,29.30
2018-08-03T07:30:33.941Z,29.40
2018-08-03T07:33:01.457Z,29.40
2018-08-03T07:35:28.627Z,29.30
2018-08-03T07:40:23.329Z,29.10
2018-08-03T07:42:50.509Z,29.00
2018-08-03T07:45:17.655Z,28.90
2018-08-03T07:50:12.057Z,28.80
2018-08-03T07:52:39.237Z,28.70
2018-08-03T07:57:33.706Z,28.70
2018-08-03T08:00:00.869Z,28.60
2018-08-03T08:02:28.017Z,28.60
2018-08-03T08:04:55.501Z,28.60
2018-08-03T08:07:22.657Z,28.60
2018-08-03T08:09:49.875Z,28.60
2018-08-03T08:12:17.045Z,28.60
2018-08-03T08:14:44.225Z,28.60
2018-08-03T08:17:11.403Z,28.60
2018-08-03T08:22:06.123Z,28.60
2018-08-03T08:27:00.821Z,28.60
2018-08-03T08:29:27.984Z,28.60
2018-08-03T08:31:55.301Z,28.60
2018-08-03T08:34:26.894Z,28.60
2018-08-03T08:36:54.111Z,28.60
2018-08-03T08:39:21.257Z,28.60
2018-08-03T08:41:48.683Z,28.60
2018-08-03T08:46:45.142Z,28.60
2018-08-03T08:51:39.566Z,28.60
2018-08-03T08:54:06.739Z,28.70
2018-08-03T08:56:33.913Z,28.70
2018-08-03T08:59:01.069Z,28.70
2018-08-03T09:01:28.237Z,28.70
2018-08-03T09:03:55.398Z,28.70
2018-08-03T09:06:22.553Z,28.70
2018-08-03T09:08:49.729Z,28.70
2018-08-03T09:11:16.887Z,28.80
2018-08-03T09:13:44.073Z,28.80
2018-08-03T09:16:11.277Z,28.80
2018-08-03T09:18:38.464Z,28.80
2018-08-03T09:21:06.088Z,28.80
2018-08-03T09:23:33.895Z,28.80
2018-08-03T09:26:01.089Z,28.80
2018-08-03T09:28:28.270Z,28.90
2018-08-03T09:30:55.447Z,28.90
2018-08-03T09:33:22.637Z,28.90
2018-08-03T09:35:49.836Z,29.00
2018-08-03T09:38:17.341Z,29.00
2018-08-03T09:40:44.494Z,29.10
2018-08-03T09:43:11.657Z,29.10
2018-08-03T09:45:38.825Z,29.10
2018-08-03T09:50:33.215Z,29.20
2018-08-03T09:53:00.391Z,29.30
2018-08-03T09:57:55.092Z,29.30
2018-08-03T10:00:28.110Z,29.40
2018-08-03T10:05:22.508Z,29.40
2018-08-03T10:07:49.677Z,29.50
2018-08-03T10:10:16.837Z,29.60
2018-08-03T10:15:11.297Z,29.60
2018-08-03T10:17:38.461Z,29.70
2018-08-03T10:20:06.039Z,29.70
2018-08-03T10:22:33.256Z,29.70
2018-08-03T10:25:00.398Z,29.70
2018-08-03T10:27:27.917Z,29.80
2018-08-03T10:32:22.285Z,29.80
2018-08-03T10:34:49.769Z,29.90
2018-08-03T10:37:16.945Z,29.90
2018-08-03T10:39:44.113Z,30.00
2018-08-03T10:42:11.557Z,30.00
2018-08-03T10:44:38.717Z,30.10
2018-08-03T10:47:05.930Z,30.10
2018-08-03T10:49:33.333Z,30.10
2018-08-03T10:52:00.493Z,30.20
2018-08-03T10:54:27.686Z,30.20
2018-08-03T10:56:54.861Z,30.20
2018-08-03T10:59:22.026Z,30.30
2018-08-03T11:01:49.198Z,30.30
2018-08-03T11:04:16.677Z,30.30
2018-08-03T11:06:43.876Z,30.30
2018-08-03T11:11:38.562Z,30.40
2018-08-03T11:14:05.829Z,30.50
2018-08-03T11:16:32.913Z,30.50
2018-08-03T11:19:00.085Z,30.50
2018-08-03T11:21:27.231Z,30.60
2018-08-03T11:23:54.393Z,30.60
2018-08-03T11:26:21.557Z,30.70
2018-08-03T11:28:48.925Z,30.80
2018-08-03T11:31:16.094Z,30.80
2018-08-03T11:33:43.277Z,30.90
2018-08-03T11:36:10.435Z,30.90
2018-08-03T11:38:37.597Z,30.90
2018-08-03T11:43:37.888Z,30.90
2018-08-03T11:46:05.793Z,31.00
2018-08-03T11:48:32.953Z,31.00
2018-08-03T11:53:27.332Z,31.00
2018-08-03T11:55:54.493Z,31.10
2018-08-03T11:58:21.653Z,31.10
2018-08-03T12:00:49.904Z,31.10
2018-08-03T12:03:17.029Z,31.20
2018-08-03T12:08:13.589Z,31.20
2018-08-03T12:10:40.770Z,31.20
2018-08-03T12:13:07.963Z,31.30
2018-08-03T12:15:35.144Z,31.30
2018-08-03T12:18:02.414Z,31.30
2018-08-03T12:22:56.725Z,31.40
2018-08-03T12:27:51.423Z,31.50
2018-08-03T12:30:18.578Z,31.50
2018-08-03T12:35:12.954Z,31.50
2018-08-03T12:37:40.121Z,31.50
2018-08-03T12:40:07.301Z,31.60
2018-08-03T12:45:01.661Z,31.70
2018-08-03T12:47:28.865Z,31.80
2018-08-03T12:49:56.038Z,31.80
2018-08-03T12:52:23.201Z,31.80
2018-08-03T12:57:18.581Z,31.80
2018-08-03T12:59:45.819Z,31.80
2018-08-03T13:04:40.193Z,31.80
2018-08-03T13:07:07.390Z,31.90
2018-08-03T13:09:34.809Z,31.90
2018-08-03T13:12:01.975Z,31.90
2018-08-03T13:16:58.422Z,32.00
2018-08-03T13:19:25.606Z,31.90
2018-08-03T13:24:19.996Z,32.00
2018-08-03T13:26:47.164Z,32.10
2018-08-03T13:29:14.349Z,32.10
2018-08-03T13:31:41.548Z,32.20
2018-08-03T13:34:08.753Z,32.20
2018-08-03T13:36:35.907Z,32.20
2018-08-03T13:41:32.541Z,32.20
2018-08-03T13:43:59.706Z,32.20
2018-08-03T13:46:26.865Z,32.20
2018-08-03T13:48:54.309Z,32.20
2018-08-03T13:51:21.480Z,32.20
2018-08-03T13:53:48.782Z,32.20
2018-08-03T13:56:20.781Z,32.30
2018-08-03T13:58:47.949Z,32.30
2018-08-03T14:01:26.909Z,32.30
2018-08-03T14:03:54.115Z,32.30
2018-08-03T14:06:21.226Z,32.30
2018-08-03T14:08:48.914Z,32.30
2018-08-03T14:11:16.981Z,32.30
2018-08-03T14:13:44.245Z,32.40
2018-08-03T14:16:11.718Z,32.40
2018-08-03T14:18:38.869Z,32.40
2018-08-03T14:21:06.568Z,32.40
2018-08-03T14:23:33.734Z,32.40
2018-08-03T14:26:00.892Z,32.40
2018-08-03T14:28:28.437Z,32.40
2018-08-03T14:30:55.651Z,32.40
2018-08-03T14:33:22.837Z,32.50
2018-08-03T14:35:50.009Z,32.50
2018-08-03T14:38:17.169Z,32.50
2018-08-03T14:40:44.322Z,32.50
2018-08-03T14:43:11.485Z,32.40
2018-08-03T14:45:38.656Z,32.40
2018-08-03T14:50:37.309Z,32.40
2018-08-03T14:53:04.642Z,32.40
2018-08-03T14:55:31.913Z,32.50
2018-08-03T14:57:59.213Z,32.50
2018-08-03T15:00:26.398Z,32.50
2018-08-03T15:05:20.766Z,32.40
2018-08-03T15:07:48.327Z,32.40
2018-08-03T15:10:15.449Z,32.40
2018-08-03T15:12:42.609Z,32.40
2018-08-03T15:15:09.789Z,32.50
2018-08-03T15:17:37.354Z,32.40
2018-08-03T15:20:05.777Z,32.40
2018-08-03T15:25:00.161Z,32.50
2018-08-03T15:27:27.321Z,32.50
2018-08-03T15:29:54.522Z,32.50
2018-08-03T15:34:48.876Z,32.50
2018-08-03T15:37:16.337Z,32.50
2018-08-03T15:39:43.530Z,32.40
2018-08-03T15:42:10.695Z,32.40
2018-08-03T15:47:05.104Z,32.40
2018-08-03T15:52:05.945Z,32.40
2018-08-03T15:54:33.269Z,32.40
2018-08-03T15:57:00.446Z,32.40
2018-08-03T15:59:27.601Z,32.40
2018-08-03T16:01:54.766Z,32.40
2018-08-03T16:04:21.921Z,32.40
2018-08-03T16:06:49.102Z,32.40
2018-08-03T16:09:16.650Z,32.30
2018-08-03T16:11:43.813Z,32.30
2018-08-03T16:14:10.974Z,32.30
2018-08-03T16:16:38.529Z,32.30
2018-08-03T16:19:09.717Z,32.30
2018-08-03T16:21:36.877Z,32.20
2018-08-03T16:24:04.393Z,32.20
2018-08-03T16:26:31.545Z,32.10
2018-08-03T16:28:58.746Z,32.10
2018-08-03T16:31:30.257Z,32.10
2018-08-03T16:33:57.678Z,32.10
2018-08-03T16:36:24.846Z,32.00
2018-08-03T16:38:52.058Z,32.00
2018-08-03T16:41:19.172Z,32.10
2018-08-03T16:43:46.337Z,32.10
2018-08-03T16:46:15.541Z,32.10
2018-08-03T16:48:42.734Z,32.10
2018-08-03T16:51:09.909Z,32.00
2018-08-03T16:53:37.286Z,32.00
2018-08-03T16:56:04.464Z,32.00
2018-08-03T16:58:31.625Z,31.90
2018-08-03T17:00:58.789Z,31.90
2018-08-03T17:03:25.941Z,31.90
2018-08-03T17:05:53.092Z,31.90
2018-08-03T17:10:47.890Z,31.80
2018-08-03T17:13:15.117Z,31.70
2018-08-03T17:18:13.597Z,31.60
2018-08-03T17:23:10.038Z,31.60
2018-08-03T17:25:37.202Z,31.60
2018-08-03T17:28:04.451Z,31.60
2018-08-03T17:30:35.693Z,31.60
2018-08-03T17:33:02.870Z,31.60
2018-08-03T17:35:30.030Z,31.50
2018-08-03T17:37:57.187Z,31.50
2018-08-03T17:40:24.681Z,31.50
2018-08-03T17:42:51.890Z,31.50
2018-08-03T17:45:19.033Z,31.40
2018-08-03T17:47:46.501Z,31.40
2018-08-03T17:50:13.653Z,31.40
2018-08-03T17:52:40.826Z,31.40
2018-08-03T17:55:12.058Z,31.40
2018-08-03T17:57:39.238Z,31.40
2018-08-03T18:00:06.853Z,31.40
2018-08-03T18:02:34.054Z,31.30
2018-08-03T18:05:01.193Z,31.30
2018-08-03T18:07:28.363Z,31.30
2018-08-03T18:12:23.589Z,31.30
2018-08-03T18:14:50.899Z,31.20
2018-08-03T18:17:18.378Z,31.20
2018-08-03T18:19:45.581Z,31.20
2018-08-03T18:27:07.557Z,31.10
2018-08-03T18:29:34.714Z,31.00
2018-08-03T18:34:33.319Z,31.00
2018-08-03T18:37:02.607Z,30.90
2018-08-03T18:39:29.781Z,30.90
2018-08-03T18:44:24.177Z,30.80
2018-08-03T18:46:51.381Z,30.80
2018-08-03T18:49:18.565Z,30.70
2018-08-03T18:51:45.741Z,30.70
2018-08-03T18:54:13.201Z,30.60
2018-08-03T18:56:40.357Z,30.60
2018-08-03T18:59:07.705Z,30.50
2018-08-03T19:01:38.970Z,30.50
2018-08-03T19:04:06.153Z,30.40
2018-08-03T19:06:33.693Z,30.40
2018-08-03T19:09:00.867Z,30.30
2018-08-03T19:13:59.453Z,30.20
2018-08-03T19:16:26.669Z,30.20
2018-08-03T19:18:53.886Z,30.10
2018-08-03T19:21:21.066Z,30.10
2018-08-03T19:23:48.253Z,30.00
2018-08-03T19:26:15.425Z,30.00
2018-08-03T19:28:42.607Z,29.90
2018-08-03T19:31:09.814Z,29.90
2018-08-03T19:33:36.977Z,29.90
2018-08-03T19:36:10.401Z,29.90
2018-08-03T19:38:37.585Z,29.90
2018-08-03T19:43:32.277Z,29.80
2018-08-03T19:45:59.458Z,29.70
2018-08-03T19:48:26.637Z,29.70
2018-08-03T19:50:54.270Z,29.70
2018-08-03T19:55:48.759Z,29.60
2018-08-03T19:58:20.125Z,29.60
2018-08-03T20:00:47.300Z,29.50
2018-08-03T20:05:41.997Z,29.40
2018-08-03T20:08:09.173Z,29.40
2018-08-03T20:13:03.893Z,29.30
2018-08-03T20:20:25.897Z,29.30
2018-08-03T20:22:53.106Z,29.20
2018-08-03T20:25:20.273Z,29.20
2018-08-03T20:27:47.438Z,29.20
2018-08-03T20:30:14.598Z,29.20
2018-08-03T20:37:41.167Z,29.10
2018-08-03T20:40:08.829Z,29.00
2018-08-03T20:42:36.027Z,29.00
2018-08-03T20:45:04.280Z,28.90
2018-08-03T20:50:04.990Z,28.90
2018-08-03T20:52:38.213Z,28.80
2018-08-03T20:55:05.393Z,28.80
2018-08-03T21:00:00.102Z,28.70
2018-08-03T21:02:27.308Z,28.70
2018-08-03T21:06:24.463Z,28.70
2018-08-03T21:11:18.890Z,28.60
2018-08-03T21:16:13.557Z,28.60
2018-08-03T21:18:40.734Z,28.70
2018-08-03T21:21:14.035Z,28.60
2018-08-03T21:26:08.701Z,28.50
2018-08-03T21:28:35.910Z,28.40
2018-08-03T21:31:03.186Z,28.50
2018-08-03T21:35:57.889Z,28.30
2018-08-03T21:38:25.040Z,28.30
2018-08-03T21:40:52.210Z,28.20
2018-08-03T21:43:19.381Z,28.20
2018-08-03T21:48:13.833Z,28.10
2018-08-03T21:50:41.024Z,28.10
2018-08-03T21:53:08.190Z,28.10
2018-08-03T21:55:35.357Z,28.10
2018-08-03T22:00:33.864Z,28.00
2018-08-03T22:05:28.507Z,28.00
2018-08-03T22:07:55.688Z,27.90
2018-08-03T22:10:22.866Z,27.90
2018-08-03T22:12:50.029Z,27.90
2018-08-03T22:15:19.232Z,27.80
2018-08-03T22:17:46.411Z,27.70
2018-08-03T22:22:40.782Z,27.50
2018-08-03T22:25:07.956Z,27.40
2018-08-03T22:27:35.138Z,27.30
2018-08-03T22:32:29.619Z,27.20
2018-08-03T22:34:56.804Z,27.20
2018-08-03T22:37:23.983Z,27.20
2018-08-03T22:39:51.417Z,27.20
2018-08-03T22:42:18.607Z,27.10
2018-08-03T22:44:45.761Z,27.10
2018-08-03T22:47:12.930Z,27.00
2018-08-03T22:49:39.710Z,26.90
2018-08-03T22:52:06.809Z,26.80
2018-08-03T22:54:34.241Z,26.80
2018-08-03T22:57:01.420Z,26.70
2018-08-03T23:01:56.059Z,26.50
2018-08-03T23:04:23.224Z,26.50
2018-08-03T23:06:50.389Z,26.50
2018-08-03T23:09:17.876Z,26.50
2018-08-03T23:11:45.040Z,26.50
2018-08-03T23:14:12.196Z,26.50
2018-08-03T23:16:39.385Z,26.50
2018-08-03T23:19:06.605Z,26.50
2018-08-03T23:21:33.803Z,26.50
2018-08-03T23:24:00.978Z,26.40
2018-08-03T23:26:28.191Z,26.50
2018-08-03T23:28:59.463Z,26.50
2018-08-03T23:31:26.626Z,26.50
2018-08-03T23:33:53.785Z,26.60
2018-08-03T23:36:25.297Z,26.60
2018-08-03T23:38:52.465Z,26.60
2018-08-03T23:41:19.645Z,26.60
2018-08-03T23:43:47.169Z,26.60
2018-08-03T23:48:41.586Z,26.70
2018-08-03T23:51:09.142Z,26.70
2018-08-03T23:53:36.337Z,26.70
2018-08-03T23:58:30.842Z,26.70
